sensor_id;sensor_type;location;lat;lon;timestamp;pressure;altitude;pressure_sealevel;temperature;humidity
56142;BME280;42018;48.588;10.836;2022-09-28T00:01:54;95343.38;;;9.56;77.52
56142;BME280;42018;48.588;10.836;2022-09-28T00:04:40;95337.22;;;9.61;77.64
56142;BME280;42018;48.588;10.836;2022-09-28T00:07:25;95328.19;;;9.48;77.34
56142;BME280;42018;48.588;10.836;2022-09-28T00:10:11;95326.44;;;9.57;77.06
56142;BME280;42018;48.588;10.836;2022-09-28T00:12:57;95315.47;;;9.50;77.22
56142;BME280;42018;48.588;10.836;2022-09-28T00:15:44;95314.88;;;9.40;77.69
56142;BME280;42018;48.588;10.836;2022-09-28T00:18:31;95308.78;;;9.39;79.17
56142;BME280;42018;48.588;10.836;2022-09-28T00:21:19;95304.31;;;9.53;77.83
56142;BME280;42018;48.588;10.836;2022-09-28T00:24:13;95294.50;;;9.40;78.07
56142;BME280;42018;48.588;10.836;2022-09-28T00:27:03;95295.50;;;9.58;78.34
56142;BME280;42018;48.588;10.836;2022-09-28T00:29:48;95286.19;;;9.47;79.48
56142;BME280;42018;48.588;10.836;2022-09-28T00:32:34;95290.28;;;9.67;78.66
56142;BME280;42018;48.588;10.836;2022-09-28T00:35:20;95283.63;;;9.55;78.99
56142;BME280;42018;48.588;10.836;2022-09-28T00:38:05;95268.47;;;9.61;78.82
56142;BME280;42018;48.588;10.836;2022-09-28T00:40:54;95272.97;;;9.61;78.80
56142;BME280;42018;48.588;10.836;2022-09-28T00:43:40;95269.75;;;9.50;79.66
56142;BME280;42018;48.588;10.836;2022-09-28T00:46:33;95265.03;;;9.19;80.72
56142;BME280;42018;48.588;10.836;2022-09-28T00:49:24;95253.75;;;9.14;82.24
56142;BME280;42018;48.588;10.836;2022-09-28T00:52:25;95247.63;;;9.18;81.20
56142;BME280;42018;48.588;10.836;2022-09-28T00:55:16;95244.16;;;9.18;82.37
56142;BME280;42018;48.588;10.836;2022-09-28T00:58:04;95245.34;;;9.11;82.21
56142;BME280;42018;48.588;10.836;2022-09-28T01:00:54;95239.19;;;9.16;82.94
56142;BME280;42018;48.588;10.836;2022-09-28T01:03:40;95229.91;;;9.32;81.87
56142;BME280;42018;48.588;10.836;2022-09-28T01:06:31;95226.94;;;9.20;81.82
56142;BME280;42018;48.588;10.836;2022-09-28T01:09:18;95217.16;;;9.21;82.59
56142;BME280;42018;48.588;10.836;2022-09-28T01:12:05;95214.63;;;9.16;82.70
56142;BME280;42018;48.588;10.836;2022-09-28T01:14:51;95214.91;;;9.28;83.00
56142;BME280;42018;48.588;10.836;2022-09-28T01:20:26;95198.19;;;9.46;81.81
56142;BME280;42018;48.588;10.836;2022-09-28T01:23:31;95196.19;;;9.52;80.63
56142;BME280;42018;48.588;10.836;2022-09-28T01:29:35;95179.41;;;9.70;79.61
56142;BME280;42018;48.588;10.836;2022-09-28T01:32:42;95168.69;;;9.53;80.96
56142;BME280;42018;48.588;10.836;2022-09-28T01:35:36;95165.47;;;9.42;81.55
56142;BME280;42018;48.588;10.836;2022-09-28T01:38:30;95152.72;;;9.58;81.12
56142;BME280;42018;48.588;10.836;2022-09-28T01:41:18;95153.09;;;9.65;81.08
56142;BME280;42018;48.588;10.836;2022-09-28T01:44:07;95150.50;;;9.74;80.50
56142;BME280;42018;48.588;10.836;2022-09-28T01:46:56;95135.75;;;9.59;81.10
56142;BME280;42018;48.588;10.836;2022-09-28T01:49:56;95135.47;;;9.61;81.69
56142;BME280;42018;48.588;10.836;2022-09-28T01:52:52;95132.59;;;9.71;80.99
56142;BME280;42018;48.588;10.836;2022-09-28T01:55:44;95112.16;;;9.63;81.33
56142;BME280;42018;48.588;10.836;2022-09-28T02:01:29;95103.94;;;9.64;81.67
56142;BME280;42018;48.588;10.836;2022-09-28T02:04:21;95101.94;;;9.70;81.68
56142;BME280;42018;48.588;10.836;2022-09-28T02:07:13;95094.84;;;9.56;82.09
56142;BME280;42018;48.588;10.836;2022-09-28T02:10:07;95088.75;;;9.56;82.24
56142;BME280;42018;48.588;10.836;2022-09-28T02:13:17;95079.16;;;9.60;81.78
56142;BME280;42018;48.588;10.836;2022-09-28T02:18:56;95068.56;;;9.60;81.22
56142;BME280;42018;48.588;10.836;2022-09-28T02:21:47;95058.06;;;9.46;81.35
56142;BME280;42018;48.588;10.836;2022-09-28T02:24:45;95052.66;;;9.51;80.96
56142;BME280;42018;48.588;10.836;2022-09-28T02:27:43;95054.41;;;9.56;80.38
56142;BME280;42018;48.588;10.836;2022-09-28T02:30:35;95048.75;;;9.49;80.94
56142;BME280;42018;48.588;10.836;2022-09-28T02:33:29;95047.22;;;9.34;80.92
56142;BME280;42018;48.588;10.836;2022-09-28T02:36:20;95044.84;;;9.46;80.85
56142;BME280;42018;48.588;10.836;2022-09-28T02:39:12;95037.44;;;9.34;80.62
56142;BME280;42018;48.588;10.836;2022-09-28T02:42:21;95041.88;;;9.25;81.11
56142;BME280;42018;48.588;10.836;2022-09-28T02:48:28;95032.47;;;8.83;83.55
56142;BME280;42018;48.588;10.836;2022-09-28T02:54:41;95019.19;;;9.10;82.63
56142;BME280;42018;48.588;10.836;2022-09-28T02:57:48;95021.09;;;8.96;82.88
56142;BME280;42018;48.588;10.836;2022-09-28T03:00:43;95021.44;;;9.17;82.78
56142;BME280;42018;48.588;10.836;2022-09-28T03:06:31;95015.59;;;9.06;82.68
56142;BME280;42018;48.588;10.836;2022-09-28T03:12:50;95011.16;;;8.79;84.33
56142;BME280;42018;48.588;10.836;2022-09-28T03:15:38;95003.66;;;9.09;83.09
56142;BME280;42018;48.588;10.836;2022-09-28T03:18:24;94999.59;;;9.25;82.71
56142;BME280;42018;48.588;10.836;2022-09-28T03:21:11;95003.16;;;9.07;82.51
56142;BME280;42018;48.588;10.836;2022-09-28T03:23:56;94993.41;;;9.30;81.91
56142;BME280;42018;48.588;10.836;2022-09-28T03:26:42;94990.41;;;9.23;81.73
56142;BME280;42018;48.588;10.836;2022-09-28T03:29:27;94987.53;;;9.33;81.80
56142;BME280;42018;48.588;10.836;2022-09-28T03:32:15;94987.44;;;9.24;81.98
56142;BME280;42018;48.588;10.836;2022-09-28T03:35:00;94984.59;;;8.98;82.74
56142;BME280;42018;48.588;10.836;2022-09-28T03:37:46;94990.22;;;9.19;81.68
56142;BME280;42018;48.588;10.836;2022-09-28T03:40:31;94989.44;;;9.19;81.86
56142;BME280;42018;48.588;10.836;2022-09-28T03:43:16;94976.84;;;9.16;82.19
56142;BME280;42018;48.588;10.836;2022-09-28T03:46:02;94971.66;;;9.10;82.49
56142;BME280;42018;48.588;10.836;2022-09-28T03:48:47;94957.56;;;9.15;82.52
56142;BME280;42018;48.588;10.836;2022-09-28T03:51:33;94955.78;;;9.10;82.81
56142;BME280;42018;48.588;10.836;2022-09-28T03:54:18;94959.16;;;9.25;82.05
56142;BME280;42018;48.588;10.836;2022-09-28T03:57:04;94952.16;;;9.20;82.44
56142;BME280;42018;48.588;10.836;2022-09-28T03:59:50;94945.13;;;9.38;81.71
56142;BME280;42018;48.588;10.836;2022-09-28T04:02:35;94937.53;;;9.45;80.86
56142;BME280;42018;48.588;10.836;2022-09-28T04:05:20;94935.75;;;9.32;80.84
56142;BME280;42018;48.588;10.836;2022-09-28T04:08:06;94925.06;;;9.37;81.13
56142;BME280;42018;48.588;10.836;2022-09-28T04:10:54;94921.81;;;9.18;81.73
56142;BME280;42018;48.588;10.836;2022-09-28T04:13:40;94909.69;;;9.17;82.17
56142;BME280;42018;48.588;10.836;2022-09-28T04:16:26;94909.06;;;9.42;80.75
56142;BME280;42018;48.588;10.836;2022-09-28T04:19:11;94909.66;;;9.39;80.81
56142;BME280;42018;48.588;10.836;2022-09-28T04:21:56;94904.03;;;9.32;81.52
56142;BME280;42018;48.588;10.836;2022-09-28T04:24:42;94905.81;;;9.45;80.46
56142;BME280;42018;48.588;10.836;2022-09-28T04:27:27;94896.03;;;9.46;80.36
56142;BME280;42018;48.588;10.836;2022-09-28T04:30:31;94901.28;;;9.37;80.01
56142;BME280;42018;48.588;10.836;2022-09-28T04:33:17;94900.00;;;9.34;80.56
56142;BME280;42018;48.588;10.836;2022-09-28T04:36:02;94893.94;;;9.34;80.28
56142;BME280;42018;48.588;10.836;2022-09-28T04:38:48;94881.81;;;9.33;80.01
56142;BME280;42018;48.588;10.836;2022-09-28T04:41:33;94884.25;;;9.52;79.92
56142;BME280;42018;48.588;10.836;2022-09-28T04:44:18;94878.75;;;9.40;80.06
56142;BME280;42018;48.588;10.836;2022-09-28T04:47:04;94878.44;;;9.41;80.14
56142;BME280;42018;48.588;10.836;2022-09-28T04:49:49;94877.06;;;9.44;79.40
56142;BME280;42018;48.588;10.836;2022-09-28T04:52:36;94881.56;;;9.43;79.75
56142;BME280;42018;48.588;10.836;2022-09-28T04:55:21;94879.97;;;9.33;80.73
56142;BME280;42018;48.588;10.836;2022-09-28T04:58:10;94876.00;;;9.22;80.52
56142;BME280;42018;48.588;10.836;2022-09-28T05:00:57;94881.16;;;9.50;79.72
56142;BME280;42018;48.588;10.836;2022-09-28T05:03:43;94875.53;;;9.51;79.85
56142;BME280;42018;48.588;10.836;2022-09-28T05:06:29;94870.56;;;9.50;80.32
56142;BME280;42018;48.588;10.836;2022-09-28T05:09:14;94870.94;;;9.34;80.75
56142;BME280;42018;48.588;10.836;2022-09-28T05:12:00;94871.63;;;9.49;80.71
56142;BME280;42018;48.588;10.836;2022-09-28T05:14:46;94862.00;;;9.53;80.57
56142;BME280;42018;48.588;10.836;2022-09-28T05:17:34;94864.09;;;9.65;80.21
56142;BME280;42018;48.588;10.836;2022-09-28T05:20:19;94868.09;;;9.53;80.59
56142;BME280;42018;48.588;10.836;2022-09-28T05:23:05;94872.75;;;9.56;80.93
56142;BME280;42018;48.588;10.836;2022-09-28T05:25:53;94867.00;;;9.54;80.30
56142;BME280;42018;48.588;10.836;2022-09-28T05:28:38;94866.59;;;9.70;79.95
56142;BME280;42018;48.588;10.836;2022-09-28T05:31:27;94866.13;;;9.37;80.49
56142;BME280;42018;48.588;10.836;2022-09-28T05:36:40;94873.59;;;9.66;80.29
56142;BME280;42018;48.588;10.836;2022-09-28T05:39:26;94863.94;;;9.70;80.01
56142;BME280;42018;48.588;10.836;2022-09-28T05:42:12;94868.56;;;9.55;80.41
56142;BME280;42018;48.588;10.836;2022-09-28T05:44:58;94865.78;;;9.61;80.27
56142;BME280;42018;48.588;10.836;2022-09-28T05:47:43;94870.19;;;9.74;80.01
56142;BME280;42018;48.588;10.836;2022-09-28T05:50:30;94866.31;;;9.80;79.50
56142;BME280;42018;48.588;10.836;2022-09-28T05:53:15;94875.97;;;9.76;79.72
56142;BME280;42018;48.588;10.836;2022-09-28T05:56:01;94882.84;;;9.86;79.19
56142;BME280;42018;48.588;10.836;2022-09-28T05:58:50;94885.19;;;9.87;79.50
56142;BME280;42018;48.588;10.836;2022-09-28T06:01:35;94874.44;;;9.92;79.65
56142;BME280;42018;48.588;10.836;2022-09-28T06:04:21;94884.13;;;9.57;80.95
56142;BME280;42018;48.588;10.836;2022-09-28T06:07:09;94873.00;;;9.77;80.57
56142;BME280;42018;48.588;10.836;2022-09-28T06:09:55;94874.69;;;9.73;80.71
56142;BME280;42018;48.588;10.836;2022-09-28T06:12:43;94888.75;;;9.82;80.71
56142;BME280;42018;48.588;10.836;2022-09-28T06:15:32;94887.31;;;9.76;81.17
56142;BME280;42018;48.588;10.836;2022-09-28T06:18:20;94889.34;;;9.79;80.62
56142;BME280;42018;48.588;10.836;2022-09-28T06:21:08;94896.88;;;9.64;82.67
56142;BME280;42018;48.588;10.836;2022-09-28T06:23:55;94898.81;;;9.72;82.83
56142;BME280;42018;48.588;10.836;2022-09-28T06:26:41;94895.50;;;9.66;83.21
56142;BME280;42018;48.588;10.836;2022-09-28T06:29:26;94899.50;;;9.86;82.72
56142;BME280;42018;48.588;10.836;2022-09-28T06:32:13;94906.16;;;9.75;82.76
56142;BME280;42018;48.588;10.836;2022-09-28T06:34:58;94911.47;;;9.92;83.01
56142;BME280;42018;48.588;10.836;2022-09-28T06:37:44;94904.81;;;9.95;83.62
56142;BME280;42018;48.588;10.836;2022-09-28T06:40:31;94908.72;;;10.06;83.19
56142;BME280;42018;48.588;10.836;2022-09-28T06:43:17;94907.84;;;10.19;82.42
56142;BME280;42018;48.588;10.836;2022-09-28T06:46:03;94916.44;;;10.25;82.55
56142;BME280;42018;48.588;10.836;2022-09-28T06:48:48;94918.34;;;10.33;82.09
56142;BME280;42018;48.588;10.836;2022-09-28T06:51:35;94911.53;;;10.49;81.51
56142;BME280;42018;48.588;10.836;2022-09-28T06:54:21;94923.66;;;10.02;82.77
56142;BME280;42018;48.588;10.836;2022-09-28T06:57:09;94948.47;;;9.75;84.96
56142;BME280;42018;48.588;10.836;2022-09-28T06:59:55;94945.47;;;9.68;83.09
56142;BME280;42018;48.588;10.836;2022-09-28T07:02:41;94946.06;;;9.65;81.24
56142;BME280;42018;48.588;10.836;2022-09-28T07:05:27;94942.16;;;9.62;80.60
56142;BME280;42018;48.588;10.836;2022-09-28T07:08:20;94949.53;;;9.74;80.77
56142;BME280;42018;48.588;10.836;2022-09-28T07:11:06;94939.38;;;9.67;80.08
56142;BME280;42018;48.588;10.836;2022-09-28T07:13:52;94950.81;;;9.85;80.04
56142;BME280;42018;48.588;10.836;2022-09-28T07:16:37;94960.97;;;9.92;78.88
56142;BME280;42018;48.588;10.836;2022-09-28T07:19:23;94956.19;;;10.02;78.86
56142;BME280;42018;48.588;10.836;2022-09-28T07:22:09;94960.59;;;10.16;78.27
56142;BME280;42018;48.588;10.836;2022-09-28T07:24:58;94976.00;;;10.14;78.06
56142;BME280;42018;48.588;10.836;2022-09-28T07:27:44;94984.22;;;10.03;78.48
56142;BME280;42018;48.588;10.836;2022-09-28T07:30:33;94990.22;;;10.18;78.25
56142;BME280;42018;48.588;10.836;2022-09-28T07:33:19;95000.31;;;10.16;78.73
56142;BME280;42018;48.588;10.836;2022-09-28T07:36:05;95004.81;;;10.15;78.10
56142;BME280;42018;48.588;10.836;2022-09-28T07:38:50;94999.63;;;10.10;78.82
56142;BME280;42018;48.588;10.836;2022-09-28T07:41:36;95002.56;;;10.31;78.47
56142;BME280;42018;48.588;10.836;2022-09-28T07:44:23;95012.09;;;10.32;78.19
56142;BME280;42018;48.588;10.836;2022-09-28T07:47:09;95023.13;;;10.34;78.59
56142;BME280;42018;48.588;10.836;2022-09-28T07:49:55;95023.28;;;10.29;78.72
56142;BME280;42018;48.588;10.836;2022-09-28T07:52:43;95019.25;;;10.09;79.75
56142;BME280;42018;48.588;10.836;2022-09-28T07:55:29;95032.28;;;10.28;79.42
56142;BME280;42018;48.588;10.836;2022-09-28T07:58:15;95034.72;;;10.24;79.72
56142;BME280;42018;48.588;10.836;2022-09-28T08:01:06;95047.72;;;10.26;79.44
56142;BME280;42018;48.588;10.836;2022-09-28T08:03:51;95049.25;;;10.27;79.66
56142;BME280;42018;48.588;10.836;2022-09-28T08:06:40;95059.00;;;10.18;79.63
56142;BME280;42018;48.588;10.836;2022-09-28T08:09:25;95049.25;;;10.27;79.43
56142;BME280;42018;48.588;10.836;2022-09-28T08:12:12;95052.75;;;10.36;79.52
56142;BME280;42018;48.588;10.836;2022-09-28T08:14:57;95053.63;;;10.31;78.73
56142;BME280;42018;48.588;10.836;2022-09-28T08:17:47;95063.16;;;10.33;78.40
56142;BME280;42018;48.588;10.836;2022-09-28T08:23:04;95068.22;;;9.98;78.54
56142;BME280;42018;48.588;10.836;2022-09-28T08:36:10;95078.50;;;9.99;77.78
56142;BME280;42018;48.588;10.836;2022-09-28T09:04:45;95093.50;;;10.35;77.40
56142;BME280;42018;48.588;10.836;2022-09-28T09:11:05;95090.25;;;10.07;76.78
56142;BME280;42018;48.588;10.836;2022-09-28T09:14:27;95090.53;;;10.05;77.19
56142;BME280;42018;48.588;10.836;2022-09-28T09:17:42;95089.03;;;10.36;76.45
56142;BME280;42018;48.588;10.836;2022-09-28T09:26:38;95096.91;;;10.04;75.86
56142;BME280;42018;48.588;10.836;2022-09-28T09:35:58;95108.38;;;10.22;75.49
56142;BME280;42018;48.588;10.836;2022-09-28T09:42:01;95115.34;;;10.41;76.15
56142;BME280;42018;48.588;10.836;2022-09-28T09:47:43;95118.63;;;10.15;75.64
56142;BME280;42018;48.588;10.836;2022-09-28T09:50:33;95122.28;;;10.50;75.35
56142;BME280;42018;48.588;10.836;2022-09-28T09:53:31;95128.91;;;9.94;76.68
56142;BME280;42018;48.588;10.836;2022-09-28T09:59:02;95129.25;;;10.24;75.89
56142;BME280;42018;48.588;10.836;2022-09-28T10:19:45;95128.44;;;10.77;74.48
56142;BME280;42018;48.588;10.836;2022-09-28T10:22:31;95127.13;;;10.97;74.84
56142;BME280;42018;48.588;10.836;2022-09-28T10:30:27;95155.09;;;10.72;74.69
56142;BME280;42018;48.588;10.836;2022-09-28T10:33:28;95144.84;;;10.88;75.41
56142;BME280;42018;48.588;10.836;2022-09-28T10:38:46;95135.59;;;11.08;73.15
56142;BME280;42018;48.588;10.836;2022-09-28T10:41:31;95144.31;;;10.99;74.04
56142;BME280;42018;48.588;10.836;2022-09-28T10:44:18;95135.94;;;11.23;74.26
56142;BME280;42018;48.588;10.836;2022-09-28T10:47:05;95131.91;;;11.35;73.90
56142;BME280;42018;48.588;10.836;2022-09-28T10:49:54;95135.03;;;11.28;74.02
56142;BME280;42018;48.588;10.836;2022-09-28T10:52:41;95142.44;;;10.69;74.26
56142;BME280;42018;48.588;10.836;2022-09-28T10:55:30;95149.78;;;11.12;74.39
56142;BME280;42018;48.588;10.836;2022-09-28T10:58:24;95152.91;;;11.14;71.73
56142;BME280;42018;48.588;10.836;2022-09-28T11:01:23;95145.72;;;11.06;72.87
56142;BME280;42018;48.588;10.836;2022-09-28T11:04:19;95152.63;;;11.24;72.04
56142;BME280;42018;48.588;10.836;2022-09-28T11:07:21;95158.25;;;11.31;72.12
56142;BME280;42018;48.588;10.836;2022-09-28T11:10:19;95148.47;;;11.40;71.74
56142;BME280;42018;48.588;10.836;2022-09-28T11:13:07;95141.94;;;11.46;71.73
56142;BME280;42018;48.588;10.836;2022-09-28T11:15:53;95148.91;;;11.34;71.39
56142;BME280;42018;48.588;10.836;2022-09-28T11:18:39;95148.66;;;11.53;71.23
56142;BME280;42018;48.588;10.836;2022-09-28T11:21:29;95137.41;;;11.56;70.13
56142;BME280;42018;48.588;10.836;2022-09-28T11:24:22;95140.94;;;11.34;70.19
56142;BME280;42018;48.588;10.836;2022-09-28T11:27:18;95129.06;;;11.14;68.75
56142;BME280;42018;48.588;10.836;2022-09-28T11:30:05;95130.50;;;11.37;70.29
56142;BME280;42018;48.588;10.836;2022-09-28T11:39:26;95151.59;;;11.42;69.82
56142;BME280;42018;48.588;10.836;2022-09-28T11:48:41;95159.09;;;11.58;70.65
56142;BME280;42018;48.588;10.836;2022-09-28T11:51:31;95156.53;;;11.26;70.44
56142;BME280;42018;48.588;10.836;2022-09-28T11:54:24;95155.13;;;11.29;70.20
56142;BME280;42018;48.588;10.836;2022-09-28T11:57:17;95152.94;;;11.31;70.19
56142;BME280;42018;48.588;10.836;2022-09-28T12:00:05;95159.16;;;11.18;69.87
56142;BME280;42018;48.588;10.836;2022-09-28T12:03:07;95161.53;;;11.28;70.25
56142;BME280;42018;48.588;10.836;2022-09-28T12:05:58;95161.59;;;11.06;70.38
56142;BME280;42018;48.588;10.836;2022-09-28T12:08:49;95165.41;;;11.22;70.06
56142;BME280;42018;48.588;10.836;2022-09-28T12:11:42;95160.31;;;11.43;70.15
56142;BME280;42018;48.588;10.836;2022-09-28T12:14:36;95155.84;;;11.61;69.43
56142;BME280;42018;48.588;10.836;2022-09-28T12:17:45;95157.03;;;11.37;67.63
56142;BME280;42018;48.588;10.836;2022-09-28T12:20:38;95147.97;;;11.30;68.46
56142;BME280;42018;48.588;10.836;2022-09-28T12:23:32;95156.03;;;11.16;68.58
56142;BME280;42018;48.588;10.836;2022-09-28T12:26:31;95160.03;;;11.53;67.94
56142;BME280;42018;48.588;10.836;2022-09-28T12:29:26;95168.94;;;11.66;67.79
56142;BME280;42018;48.588;10.836;2022-09-28T12:32:34;95173.63;;;11.60;67.35
56142;BME280;42018;48.588;10.836;2022-09-28T12:38:33;95171.94;;;11.16;68.28
56142;BME280;42018;48.588;10.836;2022-09-28T12:56:18;95172.13;;;11.85;68.46
56142;BME280;42018;48.588;10.836;2022-09-28T12:59:29;95179.38;;;11.62;65.47
56142;BME280;42018;48.588;10.836;2022-09-28T13:26:02;95178.47;;;11.67;68.75
56142;BME280;42018;48.588;10.836;2022-09-28T13:28:54;95177.28;;;11.99;70.09
56142;BME280;42018;48.588;10.836;2022-09-28T13:31:52;95172.44;;;11.92;68.82
56142;BME280;42018;48.588;10.836;2022-09-28T13:34:39;95184.31;;;12.21;70.00
56142;BME280;42018;48.588;10.836;2022-09-28T13:37:25;95174.75;;;12.20;70.06
56142;BME280;42018;48.588;10.836;2022-09-28T13:40:11;95176.97;;;12.18;69.22
56142;BME280;42018;48.588;10.836;2022-09-28T13:43:14;95176.19;;;12.17;
56142;BME280;42018;48.588;10.836;2022-09-28T13:46:11;95179.75;;;12.21;69.16
56142;BME280;42018;48.588;10.836;2022-09-28T13:52:31;95171.78;;;11.78;68.61
56142;BME280;42018;48.588;10.836;2022-09-28T13:58:34;95185.47;;;11.54;66.09
56142;BME280;42018;48.588;10.836;2022-09-28T14:02:17;95175.25;;;11.21;67.16
56142;BME280;42018;48.588;10.836;2022-09-28T14:04:56;95181.91;;;11.67;65.91
56142;BME280;42018;48.588;10.836;2022-09-28T14:10:56;95178.16;;;11.77;65.07
56142;BME280;42018;48.588;10.836;2022-09-28T14:20:14;95187.66;;;11.69;65.05
56142;BME280;42018;48.588;10.836;2022-09-28T14:23:13;95186.28;;;11.81;65.64
56142;BME280;42018;48.588;10.836;2022-09-28T14:26:18;95185.81;;;11.79;67.92
56142;BME280;42018;48.588;10.836;2022-09-28T14:29:16;95186.59;;;11.79;70.57
56142;BME280;42018;48.588;10.836;2022-09-28T14:34:59;95195.47;;;11.66;71.22
56142;BME280;42018;48.588;10.836;2022-09-28T14:37:48;95194.16;;;11.37;71.87
56142;BME280;42018;48.588;10.836;2022-09-28T14:44:07;95203.72;;;11.56;71.77
56142;BME280;42018;48.588;10.836;2022-09-28T14:53:10;95194.78;;;11.43;71.37
56142;BME280;42018;48.588;10.836;2022-09-28T15:01:15;95200.84;;;11.35;71.48
56142;BME280;42018;48.588;10.836;2022-09-28T15:04:08;95202.59;;;11.39;71.40
56142;BME280;42018;48.588;10.836;2022-09-28T15:06:55;95209.44;;;11.40;71.85
56142;BME280;42018;48.588;10.836;2022-09-28T15:09:47;95217.22;;;11.37;71.99
56142;BME280;42018;48.588;10.836;2022-09-28T15:12:33;95218.34;;;11.05;73.66
56142;BME280;42018;48.588;10.836;2022-09-28T15:15:25;95219.03;;;11.10;72.74
56142;BME280;42018;48.588;10.836;2022-09-28T15:21:03;95214.88;;;10.95;73.83
56142;BME280;42018;48.588;10.836;2022-09-28T15:23:49;95215.72;;;11.05;74.06
56142;BME280;42018;48.588;10.836;2022-09-28T15:26:34;95214.75;;;11.00;73.96
56142;BME280;42018;48.588;10.836;2022-09-28T15:29:20;95224.88;;;10.98;73.61
56142;BME280;42018;48.588;10.836;2022-09-28T15:32:22;95213.03;;;10.73;73.67
56142;BME280;42018;48.588;10.836;2022-09-28T15:35:12;95232.13;;;10.84;73.96
56142;BME280;42018;48.588;10.836;2022-09-28T15:38:01;95223.81;;;10.77;74.88
56142;BME280;42018;48.588;10.836;2022-09-28T15:40:48;95219.81;;;10.88;74.45
56142;BME280;42018;48.588;10.836;2022-09-28T15:43:34;95223.66;;;10.73;73.93
56142;BME280;42018;48.588;10.836;2022-09-28T15:46:21;95240.09;;;10.62;73.82
56142;BME280;42018;48.588;10.836;2022-09-28T15:49:23;95239.38;;;10.11;74.43
56142;BME280;42018;48.588;10.836;2022-09-28T15:58:20;95234.84;;;10.48;74.06
56142;BME280;42018;48.588;10.836;2022-09-28T16:01:21;95234.13;;;10.56;73.93
56142;BME280;42018;48.588;10.836;2022-09-28T16:04:36;95241.47;;;10.37;73.89
56142;BME280;42018;48.588;10.836;2022-09-28T16:13:27;95239.44;;;10.20;74.70
56142;BME280;42018;48.588;10.836;2022-09-28T16:16:14;95242.22;;;10.28;74.72
56142;BME280;42018;48.588;10.836;2022-09-28T16:19:01;95239.75;;;10.32;74.10
56142;BME280;42018;48.588;10.836;2022-09-28T16:21:50;95235.63;;;10.48;73.87
56142;BME280;42018;48.588;10.836;2022-09-28T16:24:37;95238.00;;;10.50;73.52
56142;BME280;42018;48.588;10.836;2022-09-28T16:27:29;95237.94;;;10.41;73.38
56142;BME280;42018;48.588;10.836;2022-09-28T16:30:59;95235.25;;;10.19;73.28
56142;BME280;42018;48.588;10.836;2022-09-28T16:37:28;95233.69;;;10.18;73.92
56142;BME280;42018;48.588;10.836;2022-09-28T16:40:23;95232.41;;;10.15;73.67
56142;BME280;42018;48.588;10.836;2022-09-28T16:43:25;95234.84;;;9.89;74.74
56142;BME280;42018;48.588;10.836;2022-09-28T16:46:17;95234.50;;;10.04;74.81
56142;BME280;42018;48.588;10.836;2022-09-28T16:49:13;95229.69;;;10.06;74.07
56142;BME280;42018;48.588;10.836;2022-09-28T16:52:02;95234.50;;;10.04;74.32
56142;BME280;42018;48.588;10.836;2022-09-28T16:54:50;95230.09;;;10.00;73.87
56142;BME280;42018;48.588;10.836;2022-09-28T16:57:55;95240.38;;;10.01;73.83
56142;BME280;42018;48.588;10.836;2022-09-28T17:00:40;95239.13;;;9.85;74.20
56142;BME280;42018;48.588;10.836;2022-09-28T17:03:27;95238.88;;;9.73;73.90
56142;BME280;42018;48.588;10.836;2022-09-28T17:06:14;95243.19;;;9.82;73.78
56142;BME280;42018;48.588;10.836;2022-09-28T17:09:00;95239.38;;;9.75;73.42
56142;BME280;42018;48.588;10.836;2022-09-28T17:11:50;95232.31;;;9.70;73.10
56142;BME280;42018;48.588;10.836;2022-09-28T17:14:41;95244.19;;;9.45;73.80
56142;BME280;42018;48.588;10.836;2022-09-28T17:17:27;95240.88;;;9.40;73.54
56142;BME280;42018;48.588;10.836;2022-09-28T17:20:21;95251.72;;;9.38;73.58
56142;BME280;42018;48.588;10.836;2022-09-28T17:23:07;95245.97;;;9.36;73.66
56142;BME280;42018;48.588;10.836;2022-09-28T17:25:53;95243.09;;;9.60;72.73
56142;BME280;42018;48.588;10.836;2022-09-28T17:28:39;95242.41;;;9.27;73.46
56142;BME280;42018;48.588;10.836;2022-09-28T17:31:25;95235.97;;;9.47;73.32
56142;BME280;42018;48.588;10.836;2022-09-28T17:34:12;95238.88;;;9.31;72.71
56142;BME280;42018;48.588;10.836;2022-09-28T17:36:59;95250.03;;;9.42;72.46
56142;BME280;42018;48.588;10.836;2022-09-28T17:39:44;95249.19;;;9.61;72.29
56142;BME280;42018;48.588;10.836;2022-09-28T17:42:30;95249.47;;;9.45;72.60
56142;BME280;42018;48.588;10.836;2022-09-28T17:45:16;95259.16;;;9.36;73.15
56142;BME280;42018;48.588;10.836;2022-09-28T17:48:02;95267.09;;;9.36;73.08
56142;BME280;42018;48.588;10.836;2022-09-28T17:50:48;95264.72;;;9.21;73.22
56142;BME280;42018;48.588;10.836;2022-09-28T17:53:33;95264.91;;;9.10;74.05
56142;BME280;42018;48.588;10.836;2022-09-28T17:56:19;95266.97;;;9.27;73.33
56142;BME280;42018;48.588;10.836;2022-09-28T17:59:06;95270.41;;;9.28;72.91
56142;BME280;42018;48.588;10.836;2022-09-28T18:01:52;95269.97;;;9.07;73.48
56142;BME280;42018;48.588;10.836;2022-09-28T18:04:46;95273.91;;;9.09;73.52
56142;BME280;42018;48.588;10.836;2022-09-28T18:07:36;95274.56;;;8.87;73.95
56142;BME280;42018;48.588;10.836;2022-09-28T18:10:23;95278.75;;;8.88;73.97
56142;BME280;42018;48.588;10.836;2022-09-28T18:13:08;95279.38;;;8.99;73.79
56142;BME280;42018;48.588;10.836;2022-09-28T18:15:55;95276.16;;;9.02;73.75
56142;BME280;42018;48.588;10.836;2022-09-28T18:18:40;95288.16;;;8.95;73.87
56142;BME280;42018;48.588;10.836;2022-09-28T18:21:25;95281.56;;;8.78;74.18
56142;BME280;42018;48.588;10.836;2022-09-28T18:24:11;95295.00;;;8.96;73.87
56142;BME280;42018;48.588;10.836;2022-09-28T18:26:56;95299.97;;;8.83;74.50
56142;BME280;42018;48.588;10.836;2022-09-28T18:29:42;95294.56;;;9.07;73.95
56142;BME280;42018;48.588;10.836;2022-09-28T18:32:27;95299.63;;;8.90;74.17
56142;BME280;42018;48.588;10.836;2022-09-28T18:35:13;95302.69;;;9.11;74.18
56142;BME280;42018;48.588;10.836;2022-09-28T18:37:58;95311.88;;;9.14;73.52